White Rock, Texas
Current Conditions -  °F | °C
As of 5:55 AM on Sunday 21 Dec 2014 (Local Time) from KOCH Reporting Station
Overcast Overcast  
Wind Chill: 37°   Ceiling: 3100
Heat Index: 37°   Visibility: 2.5mi
Dew Point: 36°   Wind: 3mph
Humidity: 93%   Direction: 350°N
Pressure: 30.14"   Gusts: NA
Location:  31.516°N, 94.1687°W
Report Text: KOCH 211155Z AUTO 35003KT 2 1/2SM OVC031 03/02 A3014 RMK AO1 10030 20020 57010
Loading
Personal Weather Stations






























Interactive Weather Map New forecast layout! Learn more

10-Day Weather Forecast

Advertisements
Track Severe Weather on mobile